sensor_id;sensor_type;location;lat;lon;timestamp;P1;durP1;ratioP1;P2;durP2;ratioP2
72929;SDS011;61073;54.260;20.816;2023-07-16T00:02:02;7.72;;;4.75;;
72929;SDS011;61073;54.260;20.816;2023-07-16T00:04:32;8.80;;;4.85;;
72929;SDS011;61073;54.260;20.816;2023-07-16T00:07:00;8.63;;;4.57;;
72929;SDS011;61073;54.260;20.816;2023-07-16T00:09:30;9.18;;;4.97;;
72929;SDS011;61073;54.260;20.816;2023-07-16T00:11:57;8.97;;;5.73;;
72929;SDS011;61073;54.260;20.816;2023-07-16T00:16:52;7.38;;;4.03;;
72929;SDS011;61073;54.260;20.816;2023-07-16T00:19:20;5.45;;;4.28;;
72929;SDS011;61073;54.260;20.816;2023-07-16T00:21:47;10.48;;;4.38;;
72929;SDS011;61073;54.260;20.816;2023-07-16T00:26:40;6.33;;;4.50;;
72929;SDS011;61073;54.260;20.816;2023-07-16T00:29:07;7.23;;;4.97;;
72929;SDS011;61073;54.260;20.816;2023-07-16T00:31:34;7.00;;;4.82;;
72929;SDS011;61073;54.260;20.816;2023-07-16T00:38:55;8.77;;;4.93;;
72929;SDS011;61073;54.260;20.816;2023-07-16T00:41:22;6.83;;;5.00;;
72929;SDS011;61073;54.260;20.816;2023-07-16T00:58:33;6.38;;;4.30;;
72929;SDS011;61073;54.260;20.816;2023-07-16T01:18:09;7.50;;;4.00;;
72929;SDS011;61073;54.260;20.816;2023-07-16T01:20:36;6.80;;;4.60;;
72929;SDS011;61073;54.260;20.816;2023-07-16T01:52:59;8.73;;;5.18;;
72929;SDS011;61073;54.260;20.816;2023-07-16T01:55:26;10.83;;;5.83;;
72929;SDS011;61073;54.260;20.816;2023-07-16T03:04:01;7.80;;;5.32;;
72929;SDS011;61073;54.260;20.816;2023-07-16T03:06:28;7.53;;;5.40;;
72929;SDS011;61073;54.260;20.816;2023-07-16T03:08:55;8.23;;;5.70;;
72929;SDS011;61073;54.260;20.816;2023-07-16T03:11:22;8.10;;;5.43;;
72929;SDS011;61073;54.260;20.816;2023-07-16T03:13:49;9.57;;;5.93;;
72929;SDS011;61073;54.260;20.816;2023-07-16T03:16:16;14.43;;;7.10;;
72929;SDS011;61073;54.260;20.816;2023-07-16T03:18:44;11.18;;;5.68;;
72929;SDS011;61073;54.260;20.816;2023-07-16T03:21:12;9.45;;;5.50;;
72929;SDS011;61073;54.260;20.816;2023-07-16T03:28:32;7.68;;;4.70;;
72929;SDS011;61073;54.260;20.816;2023-07-16T03:31:01;10.50;;;5.65;;
72929;SDS011;61073;54.260;20.816;2023-07-16T03:33:28;7.43;;;4.50;;
72929;SDS011;61073;54.260;20.816;2023-07-16T03:35:55;7.22;;;4.93;;
72929;SDS011;61073;54.260;20.816;2023-07-16T03:38:22;6.32;;;4.55;;
72929;SDS011;61073;54.260;20.816;2023-07-16T03:45:42;7.45;;;4.03;;
72929;SDS011;61073;54.260;20.816;2023-07-16T03:50:36;5.47;;;4.82;;
72929;SDS011;61073;54.260;20.816;2023-07-16T03:53:03;5.00;;;4.22;;
72929;SDS011;61073;54.260;20.816;2023-07-16T03:55:30;7.13;;;4.57;;
72929;SDS011;61073;54.260;20.816;2023-07-16T03:57:57;5.22;;;4.05;;
72929;SDS011;61073;54.260;20.816;2023-07-16T04:00:24;6.18;;;4.05;;
72929;SDS011;61073;54.260;20.816;2023-07-16T04:02:51;7.38;;;4.60;;
72929;SDS011;61073;54.260;20.816;2023-07-16T04:05:18;7.10;;;5.53;;
72929;SDS011;61073;54.260;20.816;2023-07-16T04:07:47;10.25;;;5.60;;
72929;SDS011;61073;54.260;20.816;2023-07-16T04:10:14;8.35;;;6.20;;
72929;SDS011;61073;54.260;20.816;2023-07-16T04:12:41;7.10;;;5.80;;
72929;SDS011;61073;54.260;20.816;2023-07-16T04:15:08;7.35;;;5.43;;
72929;SDS011;61073;54.260;20.816;2023-07-16T04:17:36;8.27;;;5.43;;
72929;SDS011;61073;54.260;20.816;2023-07-16T04:20:03;5.88;;;4.47;;
72929;SDS011;61073;54.260;20.816;2023-07-16T04:22:31;7.43;;;4.25;;
72929;SDS011;61073;54.260;20.816;2023-07-16T04:24:58;5.05;;;3.95;;
72929;SDS011;61073;54.260;20.816;2023-07-16T04:27:25;7.68;;;4.68;;
72929;SDS011;61073;54.260;20.816;2023-07-16T04:29:52;4.75;;;4.20;;
72929;SDS011;61073;54.260;20.816;2023-07-16T04:32:19;8.57;;;4.82;;
72929;SDS011;61073;54.260;20.816;2023-07-16T04:34:46;5.00;;;4.15;;
72929;SDS011;61073;54.260;20.816;2023-07-16T04:37:13;4.45;;;4.05;;
72929;SDS011;61073;54.260;20.816;2023-07-16T04:39:40;4.32;;;3.58;;
72929;SDS011;61073;54.260;20.816;2023-07-16T04:42:08;5.32;;;4.43;;
72929;SDS011;61073;54.260;20.816;2023-07-16T04:44:35;5.25;;;4.18;;
72929;SDS011;61073;54.260;20.816;2023-07-16T04:47:02;4.75;;;4.32;;
72929;SDS011;61073;54.260;20.816;2023-07-16T04:49:29;6.07;;;4.10;;
72929;SDS011;61073;54.260;20.816;2023-07-16T04:51:56;8.50;;;4.30;;
72929;SDS011;61073;54.260;20.816;2023-07-16T04:54:23;5.95;;;4.72;;
72929;SDS011;61073;54.260;20.816;2023-07-16T04:56:51;4.65;;;3.92;;
72929;SDS011;61073;54.260;20.816;2023-07-16T04:59:18;4.78;;;4.07;;
72929;SDS011;61073;54.260;20.816;2023-07-16T05:01:45;5.80;;;4.47;;
72929;SDS011;61073;54.260;20.816;2023-07-16T05:04:12;4.65;;;4.10;;
72929;SDS011;61073;54.260;20.816;2023-07-16T05:06:38;5.72;;;4.55;;
72929;SDS011;61073;54.260;20.816;2023-07-16T05:09:05;4.30;;;3.90;;
72929;SDS011;61073;54.260;20.816;2023-07-16T05:11:32;6.88;;;4.10;;
72929;SDS011;61073;54.260;20.816;2023-07-16T05:13:59;6.07;;;4.05;;
72929;SDS011;61073;54.260;20.816;2023-07-16T05:16:26;7.03;;;4.07;;
72929;SDS011;61073;54.260;20.816;2023-07-16T05:18:53;5.50;;;4.60;;
72929;SDS011;61073;54.260;20.816;2023-07-16T05:21:20;7.22;;;4.57;;
72929;SDS011;61073;54.260;20.816;2023-07-16T05:23:47;5.05;;;4.55;;
72929;SDS011;61073;54.260;20.816;2023-07-16T05:26:14;5.75;;;4.00;;
72929;SDS011;61073;54.260;20.816;2023-07-16T05:28:42;4.68;;;4.05;;
72929;SDS011;61073;54.260;20.816;2023-07-16T05:31:09;5.93;;;5.05;;
72929;SDS011;61073;54.260;20.816;2023-07-16T05:33:36;5.45;;;4.93;;
72929;SDS011;61073;54.260;20.816;2023-07-16T05:36:03;7.85;;;4.20;;
72929;SDS011;61073;54.260;20.816;2023-07-16T05:38:31;5.47;;;4.53;;
72929;SDS011;61073;54.260;20.816;2023-07-16T05:41:02;4.22;;;3.83;;
72929;SDS011;61073;54.260;20.816;2023-07-16T05:43:29;5.35;;;4.28;;
72929;SDS011;61073;54.260;20.816;2023-07-16T05:45:56;4.63;;;4.20;;
72929;SDS011;61073;54.260;20.816;2023-07-16T05:48:24;6.93;;;4.00;;
72929;SDS011;61073;54.260;20.816;2023-07-16T05:50:50;4.63;;;3.92;;
72929;SDS011;61073;54.260;20.816;2023-07-16T05:53:17;5.00;;;4.50;;
72929;SDS011;61073;54.260;20.816;2023-07-16T05:55:44;4.30;;;3.67;;
72929;SDS011;61073;54.260;20.816;2023-07-16T05:58:11;6.05;;;4.18;;
72929;SDS011;61073;54.260;20.816;2023-07-16T06:00:38;6.10;;;4.40;;
72929;SDS011;61073;54.260;20.816;2023-07-16T06:03:06;4.30;;;3.90;;
72929;SDS011;61073;54.260;20.816;2023-07-16T06:05:33;5.43;;;3.88;;
72929;SDS011;61073;54.260;20.816;2023-07-16T06:08:00;4.30;;;3.90;;
72929;SDS011;61073;54.260;20.816;2023-07-16T06:10:27;4.72;;;3.60;;
72929;SDS011;61073;54.260;20.816;2023-07-16T06:12:54;4.85;;;3.88;;
72929;SDS011;61073;54.260;20.816;2023-07-16T06:15:21;9.30;;;4.28;;
72929;SDS011;61073;54.260;20.816;2023-07-16T06:17:48;4.88;;;3.88;;
72929;SDS011;61073;54.260;20.816;2023-07-16T06:20:15;4.20;;;3.80;;
72929;SDS011;61073;54.260;20.816;2023-07-16T06:22:42;4.47;;;3.97;;
72929;SDS011;61073;54.260;20.816;2023-07-16T06:25:09;9.57;;;3.72;;
72929;SDS011;61073;54.260;20.816;2023-07-16T06:27:36;4.53;;;3.78;;
72929;SDS011;61073;54.260;20.816;2023-07-16T06:30:04;4.05;;;3.65;;
72929;SDS011;61073;54.260;20.816;2023-07-16T06:32:31;4.15;;;3.60;;
72929;SDS011;61073;54.260;20.816;2023-07-16T06:34:58;4.60;;;4.10;;
72929;SDS011;61073;54.260;20.816;2023-07-16T06:37:25;6.38;;;3.70;;
72929;SDS011;61073;54.260;20.816;2023-07-16T06:39:52;5.40;;;3.88;;
72929;SDS011;61073;54.260;20.816;2023-07-16T06:47:13;4.47;;;4.07;;
72929;SDS011;61073;54.260;20.816;2023-07-16T07:06:51;4.82;;;3.90;;
72929;SDS011;61073;54.260;20.816;2023-07-16T07:09:19;5.18;;;3.50;;
72929;SDS011;61073;54.260;20.816;2023-07-16T07:14:13;6.78;;;3.67;;
72929;SDS011;61073;54.260;20.816;2023-07-16T07:16:40;4.30;;;3.90;;
72929;SDS011;61073;54.260;20.816;2023-07-16T07:19:08;7.38;;;4.07;;
72929;SDS011;61073;54.260;20.816;2023-07-16T07:21:34;4.30;;;3.63;;
72929;SDS011;61073;54.260;20.816;2023-07-16T07:24:01;5.85;;;4.20;;
72929;SDS011;61073;54.260;20.816;2023-07-16T07:26:28;4.65;;;3.78;;
72929;SDS011;61073;54.260;20.816;2023-07-16T07:28:55;7.85;;;3.90;;
72929;SDS011;61073;54.260;20.816;2023-07-16T07:31:22;6.75;;;3.72;;
72929;SDS011;61073;54.260;20.816;2023-07-16T07:36:16;3.97;;;3.50;;
72929;SDS011;61073;54.260;20.816;2023-07-16T08:05:41;5.38;;;3.60;;
72929;SDS011;61073;54.260;20.816;2023-07-16T08:10:36;6.90;;;4.75;;
72929;SDS011;61073;54.260;20.816;2023-07-16T08:45:04;8.85;;;4.10;;
72929;SDS011;61073;54.260;20.816;2023-07-16T13:44:34;7.60;;;4.00;;
72929;SDS011;61073;54.260;20.816;2023-07-16T13:47:01;4.18;;;3.78;;
72929;SDS011;61073;54.260;20.816;2023-07-16T13:49:29;5.47;;;4.65;;
72929;SDS011;61073;54.260;20.816;2023-07-16T13:51:56;4.28;;;3.88;;
72929;SDS011;61073;54.260;20.816;2023-07-16T13:54:24;4.05;;;3.65;;
72929;SDS011;61073;54.260;20.816;2023-07-16T13:56:51;3.92;;;3.53;;
72929;SDS011;61073;54.260;20.816;2023-07-16T13:59:18;6.90;;;3.22;;
72929;SDS011;61073;54.260;20.816;2023-07-16T14:01:45;5.03;;;3.25;;
72929;SDS011;61073;54.260;20.816;2023-07-16T14:04:14;5.13;;;3.67;;
72929;SDS011;61073;54.260;20.816;2023-07-16T14:06:41;5.43;;;3.30;;
72929;SDS011;61073;54.260;20.816;2023-07-16T14:09:09;6.40;;;3.60;;
72929;SDS011;61073;54.260;20.816;2023-07-16T14:11:36;3.90;;;3.50;;
72929;SDS011;61073;54.260;20.816;2023-07-16T14:14:02;4.93;;;3.38;;
72929;SDS011;61073;54.260;20.816;2023-07-16T14:16:29;3.63;;;3.30;;
72929;SDS011;61073;54.260;20.816;2023-07-16T14:18:56;6.55;;;3.47;;
72929;SDS011;61073;54.260;20.816;2023-07-16T14:21:23;6.28;;;3.97;;
72929;SDS011;61073;54.260;20.816;2023-07-16T14:31:12;3.30;;;3.00;;
72929;SDS011;61073;54.260;20.816;2023-07-16T14:33:39;3.10;;;2.90;;
72929;SDS011;61073;54.260;20.816;2023-07-16T14:36:06;18.80;;;9.27;;
72929;SDS011;61073;54.260;20.816;2023-07-16T14:43:27;7.00;;;3.92;;
72929;SDS011;61073;54.260;20.816;2023-07-16T14:45:54;6.75;;;3.88;;
72929;SDS011;61073;54.260;20.816;2023-07-16T14:48:21;5.47;;;3.10;;
72929;SDS011;61073;54.260;20.816;2023-07-16T14:50:49;5.25;;;3.50;;
72929;SDS011;61073;54.260;20.816;2023-07-16T14:53:17;4.75;;;3.60;;
72929;SDS011;61073;54.260;20.816;2023-07-16T14:55:50;6.05;;;3.53;;
72929;SDS011;61073;54.260;20.816;2023-07-16T14:58:18;5.70;;;3.97;;
72929;SDS011;61073;54.260;20.816;2023-07-16T15:00:46;8.70;;;4.25;;
72929;SDS011;61073;54.260;20.816;2023-07-16T15:03:13;4.30;;;3.90;;
72929;SDS011;61073;54.260;20.816;2023-07-16T15:05:40;8.30;;;5.15;;
72929;SDS011;61073;54.260;20.816;2023-07-16T15:08:07;9.48;;;4.97;;
72929;SDS011;61073;54.260;20.816;2023-07-16T15:10:34;9.50;;;4.35;;
72929;SDS011;61073;54.260;20.816;2023-07-16T15:13:01;7.47;;;4.15;;
72929;SDS011;61073;54.260;20.816;2023-07-16T15:15:28;8.57;;;3.72;;
72929;SDS011;61073;54.260;20.816;2023-07-16T15:17:55;4.65;;;3.80;;
72929;SDS011;61073;54.260;20.816;2023-07-16T15:20:23;6.13;;;4.50;;
72929;SDS011;61073;54.260;20.816;2023-07-16T15:22:52;10.70;;;3.63;;
72929;SDS011;61073;54.260;20.816;2023-07-16T15:40:11;4.07;;;2.90;;
72929;SDS011;61073;54.260;20.816;2023-07-16T15:42:39;7.25;;;2.80;;
72929;SDS011;61073;54.260;20.816;2023-07-16T15:47:35;3.67;;;2.85;;
72929;SDS011;61073;54.260;20.816;2023-07-16T15:52:29;6.07;;;2.92;;
72929;SDS011;61073;54.260;20.816;2023-07-16T15:57:23;4.05;;;3.00;;
72929;SDS011;61073;54.260;20.816;2023-07-16T15:59:50;3.05;;;2.17;;
72929;SDS011;61073;54.260;20.816;2023-07-16T16:02:17;2.47;;;2.28;;
72929;SDS011;61073;54.260;20.816;2023-07-16T16:04:44;2.38;;;2.17;;
72929;SDS011;61073;54.260;20.816;2023-07-16T16:07:11;3.10;;;2.17;;
72929;SDS011;61073;54.260;20.816;2023-07-16T16:09:38;3.10;;;2.60;;
72929;SDS011;61073;54.260;20.816;2023-07-16T16:44:03;4.57;;;2.45;;
72929;SDS011;61073;54.260;20.816;2023-07-16T16:46:30;2.50;;;2.30;;
72929;SDS011;61073;54.260;20.816;2023-07-16T16:48:57;3.70;;;2.58;;
72929;SDS011;61073;54.260;20.816;2023-07-16T16:51:24;2.30;;;2.10;;
72929;SDS011;61073;54.260;20.816;2023-07-16T16:53:51;3.50;;;2.55;;
72929;SDS011;61073;54.260;20.816;2023-07-16T16:56:18;3.88;;;2.30;;
72929;SDS011;61073;54.260;20.816;2023-07-16T17:01:12;2.97;;;2.33;;
72929;SDS011;61073;54.260;20.816;2023-07-16T17:03:40;3.08;;;2.25;;
72929;SDS011;61073;54.260;20.816;2023-07-16T17:06:07;3.10;;;2.10;;
72929;SDS011;61073;54.260;20.816;2023-07-16T18:05:09;4.82;;;2.70;;
72929;SDS011;61073;54.260;20.816;2023-07-16T18:10:04;8.18;;;4.18;;
72929;SDS011;61073;54.260;20.816;2023-07-16T18:14:58;8.77;;;4.85;;
72929;SDS011;61073;54.260;20.816;2023-07-16T18:34:35;3.53;;;2.75;;
72929;SDS011;61073;54.260;20.816;2023-07-16T18:37:02;3.67;;;2.70;;
72929;SDS011;61073;54.260;20.816;2023-07-16T18:39:29;4.70;;;2.72;;
72929;SDS011;61073;54.260;20.816;2023-07-16T18:41:56;5.80;;;2.88;;
72929;SDS011;61073;54.260;20.816;2023-07-16T18:44:23;4.05;;;2.80;;
72929;SDS011;61073;54.260;20.816;2023-07-16T18:46:50;3.83;;;3.15;;
72929;SDS011;61073;54.260;20.816;2023-07-16T18:49:17;7.80;;;2.78;;
72929;SDS011;61073;54.260;20.816;2023-07-16T18:51:45;3.20;;;2.90;;
72929;SDS011;61073;54.260;20.816;2023-07-16T18:54:13;5.65;;;2.75;;
72929;SDS011;61073;54.260;20.816;2023-07-16T18:56:40;7.63;;;3.40;;
72929;SDS011;61073;54.260;20.816;2023-07-16T18:59:07;6.03;;;3.67;;
72929;SDS011;61073;54.260;20.816;2023-07-16T19:01:35;5.95;;;4.22;;
72929;SDS011;61073;54.260;20.816;2023-07-16T19:04:02;9.60;;;4.25;;
72929;SDS011;61073;54.260;20.816;2023-07-16T19:06:29;3.80;;;3.10;;
72929;SDS011;61073;54.260;20.816;2023-07-16T19:08:56;3.88;;;3.20;;
72929;SDS011;61073;54.260;20.816;2023-07-16T19:11:23;5.32;;;3.85;;
72929;SDS011;61073;54.260;20.816;2023-07-16T19:13:52;5.93;;;4.28;;
72929;SDS011;61073;54.260;20.816;2023-07-16T19:16:21;7.80;;;4.28;;
72929;SDS011;61073;54.260;20.816;2023-07-16T19:18:48;5.13;;;3.67;;
72929;SDS011;61073;54.260;20.816;2023-07-16T19:21:15;7.90;;;4.30;;
72929;SDS011;61073;54.260;20.816;2023-07-16T19:23:42;9.07;;;5.10;;
72929;SDS011;61073;54.260;20.816;2023-07-16T19:26:09;4.22;;;3.80;;
72929;SDS011;61073;54.260;20.816;2023-07-16T19:28:36;11.13;;;5.18;;
72929;SDS011;61073;54.260;20.816;2023-07-16T19:31:04;4.65;;;3.33;;
72929;SDS011;61073;54.260;20.816;2023-07-16T19:33:31;5.20;;;3.85;;
72929;SDS011;61073;54.260;20.816;2023-07-16T19:35:58;5.82;;;3.38;;
72929;SDS011;61073;54.260;20.816;2023-07-16T19:38:34;4.45;;;4.00;;
72929;SDS011;61073;54.260;20.816;2023-07-16T19:41:03;28.10;;;13.90;;
72929;SDS011;61073;54.260;20.816;2023-07-16T19:43:30;44.03;;;18.23;;
72929;SDS011;61073;54.260;20.816;2023-07-16T19:46:01;15.70;;;8.93;;
72929;SDS011;61073;54.260;20.816;2023-07-16T19:48:30;8.27;;;4.53;;
72929;SDS011;61073;54.260;20.816;2023-07-16T19:55:51;6.47;;;4.10;;
72929;SDS011;61073;54.260;20.816;2023-07-16T19:58:18;4.57;;;3.33;;
72929;SDS011;61073;54.260;20.816;2023-07-16T20:00:46;4.63;;;3.85;;
72929;SDS011;61073;54.260;20.816;2023-07-16T20:03:14;4.50;;;3.50;;
72929;SDS011;61073;54.260;20.816;2023-07-16T20:05:41;4.90;;;3.17;;
72929;SDS011;61073;54.260;20.816;2023-07-16T20:08:09;3.33;;;3.03;;
72929;SDS011;61073;54.260;20.816;2023-07-16T20:10:39;5.18;;;3.13;;
72929;SDS011;61073;54.260;20.816;2023-07-16T20:13:07;3.53;;;3.20;;
72929;SDS011;61073;54.260;20.816;2023-07-16T20:15:34;5.00;;;3.28;;
72929;SDS011;61073;54.260;20.816;2023-07-16T20:18:04;4.75;;;2.72;;
72929;SDS011;61073;54.260;20.816;2023-07-16T20:20:32;6.47;;;2.90;;
72929;SDS011;61073;54.260;20.816;2023-07-16T20:23:01;5.20;;;2.92;;
72929;SDS011;61073;54.260;20.816;2023-07-16T20:25:28;5.78;;;2.58;;
72929;SDS011;61073;54.260;20.816;2023-07-16T20:30:23;7.47;;;3.10;;
72929;SDS011;61073;54.260;20.816;2023-07-16T20:32:50;3.10;;;2.53;;
72929;SDS011;61073;54.260;20.816;2023-07-16T20:35:17;3.25;;;2.38;;
72929;SDS011;61073;54.260;20.816;2023-07-16T20:37:44;3.30;;;2.47;;
72929;SDS011;61073;54.260;20.816;2023-07-16T20:42:38;6.63;;;2.60;;
72929;SDS011;61073;54.260;20.816;2023-07-16T20:47:50;5.68;;;2.63;;
72929;SDS011;61073;54.260;20.816;2023-07-16T20:50:17;5.80;;;2.72;;
72929;SDS011;61073;54.260;20.816;2023-07-16T20:55:13;5.82;;;2.10;;
72929;SDS011;61073;54.260;20.816;2023-07-16T20:57:41;4.55;;;2.38;;
72929;SDS011;61073;54.260;20.816;2023-07-16T21:00:08;2.38;;;2.10;;
72929;SDS011;61073;54.260;20.816;2023-07-16T21:02:41;3.17;;;1.90;;
72929;SDS011;61073;54.260;20.816;2023-07-16T21:07:36;3.25;;;2.00;;
72929;SDS011;61073;54.260;20.816;2023-07-16T21:12:31;1.98;;;1.80;;
72929;SDS011;61073;54.260;20.816;2023-07-16T21:14:58;2.53;;;1.83;;
72929;SDS011;61073;54.260;20.816;2023-07-16T21:19:53;3.30;;;1.80;;
72929;SDS011;61073;54.260;20.816;2023-07-16T21:22:20;3.58;;;2.10;;
72929;SDS011;61073;54.260;20.816;2023-07-16T21:24:50;5.47;;;2.35;;
72929;SDS011;61073;54.260;20.816;2023-07-16T21:27:27;3.80;;;1.98;;
72929;SDS011;61073;54.260;20.816;2023-07-16T21:32:22;3.53;;;2.35;;
72929;SDS011;61073;54.260;20.816;2023-07-16T21:34:49;2.55;;;2.05;;
72929;SDS011;61073;54.260;20.816;2023-07-16T21:37:16;3.15;;;2.00;;
72929;SDS011;61073;54.260;20.816;2023-07-16T21:39:43;3.00;;;1.42;;
72929;SDS011;61073;54.260;20.816;2023-07-16T21:42:10;3.40;;;1.90;;
72929;SDS011;61073;54.260;20.816;2023-07-16T21:47:04;3.00;;;1.98;;
72929;SDS011;61073;54.260;20.816;2023-07-16T21:52:01;2.53;;;1.60;;
72929;SDS011;61073;54.260;20.816;2023-07-16T21:54:32;3.85;;;2.10;;
72929;SDS011;61073;54.260;20.816;2023-07-16T21:57:01;2.10;;;1.90;;
72929;SDS011;61073;54.260;20.816;2023-07-16T21:59:28;4.70;;;1.80;;
72929;SDS011;61073;54.260;20.816;2023-07-16T22:01:55;3.45;;;2.05;;
72929;SDS011;61073;54.260;20.816;2023-07-16T22:04:22;4.68;;;2.50;;
72929;SDS011;61073;54.260;20.816;2023-07-16T22:06:49;5.88;;;2.20;;
72929;SDS011;61073;54.260;20.816;2023-07-16T22:09:16;3.97;;;2.38;;
72929;SDS011;61073;54.260;20.816;2023-07-16T22:14:11;2.45;;;2.08;;
72929;SDS011;61073;54.260;20.816;2023-07-16T22:16:38;5.82;;;2.35;;
72929;SDS011;61073;54.260;20.816;2023-07-16T22:19:05;4.68;;;2.15;;
72929;SDS011;61073;54.260;20.816;2023-07-16T22:21:42;2.53;;;2.00;;
72929;SDS011;61073;54.260;20.816;2023-07-16T22:24:09;3.92;;;2.50;;
72929;SDS011;61073;54.260;20.816;2023-07-16T22:26:36;5.57;;;3.08;;
72929;SDS011;61073;54.260;20.816;2023-07-16T22:31:29;3.53;;;2.40;;
72929;SDS011;61073;54.260;20.816;2023-07-16T22:33:56;5.22;;;2.67;;
72929;SDS011;61073;54.260;20.816;2023-07-16T22:36:23;4.05;;;2.45;;
72929;SDS011;61073;54.260;20.816;2023-07-16T22:38:50;4.85;;;2.55;;
72929;SDS011;61073;54.260;20.816;2023-07-16T22:41:17;3.50;;;2.38;;
72929;SDS011;61073;54.260;20.816;2023-07-16T22:43:45;3.40;;;2.67;;
72929;SDS011;61073;54.260;20.816;2023-07-16T22:46:12;5.35;;;2.65;;
72929;SDS011;61073;54.260;20.816;2023-07-16T22:48:41;2.55;;;2.33;;
72929;SDS011;61073;54.260;20.816;2023-07-16T22:51:08;5.15;;;2.97;;
72929;SDS011;61073;54.260;20.816;2023-07-16T22:53:37;2.47;;;1.90;;
72929;SDS011;61073;54.260;20.816;2023-07-16T22:56:08;5.13;;;2.20;;
72929;SDS011;61073;54.260;20.816;2023-07-16T23:01:05;3.20;;;2.60;;
72929;SDS011;61073;54.260;20.816;2023-07-16T23:05:59;3.58;;;2.90;;
72929;SDS011;61073;54.260;20.816;2023-07-16T23:08:26;3.47;;;2.50;;
72929;SDS011;61073;54.260;20.816;2023-07-16T23:10:53;5.70;;;2.65;;
72929;SDS011;61073;54.260;20.816;2023-07-16T23:13:20;5.97;;;3.15;;
72929;SDS011;61073;54.260;20.816;2023-07-16T23:15:47;4.20;;;2.55;;
72929;SDS011;61073;54.260;20.816;2023-07-16T23:18:14;6.85;;;2.47;;
72929;SDS011;61073;54.260;20.816;2023-07-16T23:20:41;3.63;;;2.35;;
72929;SDS011;61073;54.260;20.816;2023-07-16T23:23:08;4.97;;;2.35;;
72929;SDS011;61073;54.260;20.816;2023-07-16T23:25:35;3.90;;;2.50;;
72929;SDS011;61073;54.260;20.816;2023-07-16T23:30:32;3.38;;;2.10;;
72929;SDS011;61073;54.260;20.816;2023-07-16T23:40:20;5.53;;;2.35;;
72929;SDS011;61073;54.260;20.816;2023-07-16T23:42:47;2.63;;;1.90;;
72929;SDS011;61073;54.260;20.816;2023-07-16T23:45:15;4.22;;;2.25;;
72929;SDS011;61073;54.260;20.816;2023-07-16T23:47:42;3.67;;;2.40;;
72929;SDS011;61073;54.260;20.816;2023-07-16T23:50:09;3.40;;;2.55;;
72929;SDS011;61073;54.260;20.816;2023-07-16T23:52:36;5.40;;;1.90;;
72929;SDS011;61073;54.260;20.816;2023-07-16T23:55:04;3.67;;;2.10;;
72929;SDS011;61073;54.260;20.816;2023-07-16T23:57:32;6.47;;;2.50;;
